Terminal Aerodrome Forecast
Issued by NWS El Paso, TX

Home | Current Version | Previous Version | Text Only | Print | Product List | Glossary On
Versions: 1 2 3 4 5 6 7 8 9 10 11 12 13 14
000
FTUS44 KEPZ 300405 AAA
TAFELP
TAF AMD
KELP 300405Z 3004/3024 07011G21KT P6SM SCT070 BKN120 BKN250
     FM300600 10010KT P6SM FEW070 SCT100 BKN250
     FM301000 13008KT P6SM SCT100 BKN250
     FM301600 17005KT P6SM SCT100 BKN250
     FM302100 11006KT P6SM SCT100 SCT250=

USA.gov is the U.S. government's official web portal to all federal, state and local government web resources and services.